createdAt,value
2017-06-22T10:51:18.155Z,7436
2017-06-22T10:51:43.641Z,7620
2017-06-22T10:52:09.136Z,7916
2017-06-22T10:52:34.597Z,8220
2017-06-22T10:53:00.064Z,8404
2017-06-22T10:53:25.515Z,8568
2017-06-22T10:53:51.001Z,8644
2017-06-22T10:54:16.566Z,8760
2017-06-22T10:54:41.995Z,8672
2017-06-22T10:55:07.514Z,8592
2017-06-22T10:55:32.973Z,8560
2017-06-22T10:55:58.456Z,8520
2017-06-22T10:56:23.957Z,8424
2017-06-22T10:56:49.415Z,8216
2017-06-22T10:57:14.892Z,8072
2017-06-22T10:57:40.352Z,8004
2017-06-22T10:58:05.858Z,7932
2017-06-22T10:58:31.348Z,7844
2017-06-22T10:58:56.819Z,7696
2017-06-22T10:59:22.296Z,7704
2017-06-22T10:59:47.781Z,7644
2017-06-22T11:00:13.287Z,7660
2017-06-22T11:00:38.761Z,7620
2017-06-22T11:01:04.262Z,7524
2017-06-22T11:01:29.746Z,7404
2017-06-22T11:01:55.228Z,7108
2017-06-22T11:02:20.716Z,6800
2017-06-22T11:02:46.196Z,6680
2017-06-22T11:03:11.646Z,6712
2017-06-22T11:03:37.133Z,6904
2017-06-22T11:04:02.619Z,6904
2017-06-22T11:04:28.115Z,6880
2017-06-22T11:04:53.561Z,6816
2017-06-22T11:05:19.044Z,6776
2017-06-22T11:05:44.543Z,6740
2017-06-22T11:06:10.012Z,6776
2017-06-22T11:06:35.496Z,6864
2017-06-22T11:07:00.955Z,6940
2017-06-22T11:07:26.431Z,7028
2017-06-22T11:07:51.897Z,7060
2017-06-22T11:08:17.382Z,7076
2017-06-22T11:08:42.862Z,7144
2017-06-22T11:09:08.314Z,7188
2017-06-22T11:09:33.816Z,7212
2017-06-22T11:09:59.281Z,7212
2017-06-22T11:10:24.750Z,7224
2017-06-22T11:10:50.224Z,7228
2017-06-22T11:11:15.659Z,7216
2017-06-22T11:11:41.128Z,7208
2017-06-22T11:12:06.601Z,7204
2017-06-22T11:12:32.102Z,7152
2017-06-22T11:12:57.570Z,7100
2017-06-22T11:13:23.069Z,7104
2017-06-22T11:13:48.528Z,7072
2017-06-22T11:14:14.036Z,7008
2017-06-22T11:14:39.493Z,6924
2017-06-22T11:15:04.979Z,6844
2017-06-22T11:15:30.444Z,6836
2017-06-22T11:15:55.905Z,6760
2017-06-22T11:16:21.392Z,6640
2017-06-22T11:16:46.871Z,6628
2017-06-22T11:17:12.363Z,6652
2017-06-22T11:17:37.837Z,6752
2017-06-22T11:18:03.286Z,6824
2017-06-22T11:18:28.763Z,6860
2017-06-22T11:18:54.256Z,6880
2017-06-22T11:19:19.751Z,6912
2017-06-22T11:19:45.231Z,6940
2017-06-22T11:20:10.723Z,6956
2017-06-22T11:20:36.198Z,6992
2017-06-22T11:21:01.713Z,7028
2017-06-22T11:21:27.225Z,7028
2017-06-22T11:21:52.694Z,7016
2017-06-22T11:22:18.186Z,7020
2017-06-22T11:22:43.660Z,7036
2017-06-22T11:23:09.126Z,7040
2017-06-22T11:23:34.565Z,7016
2017-06-22T11:24:00.025Z,6996
2017-06-22T11:24:25.486Z,6948
2017-06-22T11:24:50.986Z,6912
2017-06-22T11:25:16.493Z,6904
2017-06-22T11:25:41.967Z,6876
2017-06-22T11:26:07.444Z,6812
2017-06-22T11:26:32.918Z,6752
2017-06-22T11:26:58.391Z,6732
2017-06-22T11:27:23.864Z,6692
2017-06-22T11:27:49.342Z,6624
2017-06-22T11:28:14.839Z,6572
2017-06-22T11:28:40.333Z,6592
2017-06-22T11:29:05.801Z,6636
2017-06-22T11:29:31.273Z,6672
2017-06-22T11:29:56.767Z,6704
2017-06-22T11:30:22.225Z,6724
2017-06-22T11:30:47.720Z,6652
2017-06-22T11:31:13.209Z,6524
2017-06-22T11:31:38.693Z,6400
2017-06-22T11:32:04.180Z,6296
2017-06-22T11:32:29.625Z,6232
2017-06-22T11:32:55.128Z,6168
2017-06-22T11:33:20.576Z,6204
2017-06-22T11:33:46.052Z,6228
2017-06-22T11:34:11.504Z,6256
2017-06-22T11:34:37.052Z,6200
2017-06-22T11:35:02.526Z,6172
2017-06-22T11:35:28.023Z,6196
2017-06-22T11:35:53.508Z,6220
2017-06-22T11:36:18.975Z,6208
2017-06-22T11:36:44.463Z,6172
2017-06-22T11:37:09.965Z,6220
2017-06-22T11:37:35.454Z,6284
2017-06-22T11:38:00.914Z,6216
2017-06-22T11:38:26.363Z,6144
2017-06-22T11:38:51.874Z,6084
2017-06-22T11:39:17.376Z,6020
2017-06-22T11:39:42.852Z,6076
2017-06-22T11:40:08.372Z,6184
2017-06-22T11:40:33.836Z,6220
2017-06-22T11:40:59.299Z,6200
2017-06-22T11:41:24.789Z,6176
2017-06-22T11:41:50.270Z,6128
2017-06-22T11:42:15.752Z,6124
2017-06-22T11:42:41.208Z,6168
2017-06-22T11:43:06.695Z,6168
2017-06-22T11:43:32.145Z,6160
2017-06-22T11:43:57.622Z,6176
2017-06-22T11:44:23.095Z,6152
2017-06-22T11:44:48.551Z,6128
2017-06-22T11:45:14.029Z,6124
2017-06-22T11:45:39.526Z,6076
2017-06-22T11:46:04.999Z,6024
2017-06-22T11:46:30.516Z,5948
2017-06-22T11:46:55.996Z,5840
2017-06-22T11:47:21.475Z,5764
2017-06-22T11:47:46.928Z,5724
2017-06-22T11:48:12.420Z,5700
2017-06-22T11:48:37.902Z,5700
2017-06-22T11:49:03.352Z,5656
2017-06-22T11:49:28.821Z,5616
2017-06-22T11:49:54.333Z,5316
2017-06-22T11:50:19.817Z,5436
2017-06-22T11:51:43.295Z,5356
2017-06-22T11:52:08.774Z,5360
2017-06-22T11:52:34.256Z,5380
2017-06-22T11:52:59.727Z,5408
2017-06-22T11:53:25.223Z,5424
2017-06-22T11:53:50.686Z,5424
2017-06-22T11:54:16.182Z,5420
2017-06-22T11:54:41.664Z,5432
2017-06-22T11:55:07.172Z,5420
2017-06-22T11:55:32.649Z,5396
2017-06-22T11:55:58.134Z,5352
2017-06-22T11:56:23.618Z,5296
2017-06-22T11:56:49.071Z,5272
2017-06-22T11:57:14.542Z,5196
2017-06-22T11:57:40.044Z,5144
2017-06-22T11:58:05.506Z,5100
2017-06-22T11:58:30.973Z,5064
2017-06-22T11:58:56.428Z,5084
2017-06-22T11:59:21.957Z,5176
2017-06-22T11:59:47.425Z,5244
2017-06-22T12:00:12.880Z,5280
2017-06-22T12:00:38.335Z,5240
2017-06-22T12:01:03.815Z,5232
2017-06-22T12:01:29.287Z,5248
2017-06-22T12:01:54.749Z,5216
2017-06-22T12:02:20.218Z,5200
2017-06-22T12:02:45.674Z,5220
2017-06-22T12:03:11.160Z,5184
2017-06-22T12:03:36.633Z,5156
2017-06-22T12:04:02.128Z,5112
2017-06-22T12:04:27.584Z,5124
2017-06-22T12:04:53.072Z,5144
2017-06-22T12:05:18.546Z,5132
2017-06-22T12:05:44.017Z,5116
2017-06-22T12:06:09.472Z,5092
2017-06-22T12:06:34.936Z,5060
2017-06-22T12:07:00.412Z,5052
2017-06-22T12:07:25.880Z,5048
2017-06-22T12:07:51.372Z,5080
2017-06-22T12:08:16.850Z,5072
2017-06-22T12:08:42.322Z,5080
2017-06-22T12:09:07.799Z,5056
2017-06-22T12:09:33.280Z,5072
2017-06-22T12:09:58.759Z,5132
2017-06-22T12:10:24.229Z,5184
2017-06-22T12:10:49.729Z,5240
2017-06-22T12:11:15.216Z,5316
2017-06-22T12:11:40.689Z,5384
2017-06-22T12:12:06.184Z,5368
2017-06-22T12:12:31.648Z,5356
2017-06-22T12:12:57.128Z,5320
2017-06-22T12:13:22.607Z,5324
2017-06-22T12:13:48.084Z,5316
2017-06-22T12:14:13.537Z,5268
2017-06-22T12:14:39.038Z,5128
2017-06-22T12:15:04.494Z,4980
2017-06-22T12:15:29.997Z,4908
2017-06-22T12:15:55.505Z,4904
2017-06-22T12:16:20.964Z,4992
2017-06-22T12:16:46.442Z,5088
2017-06-22T12:17:11.907Z,5096
2017-06-22T12:17:37.394Z,5096
2017-06-22T12:18:02.890Z,5084
2017-06-22T12:18:28.349Z,5096
2017-06-22T12:18:53.805Z,5100
2017-06-22T12:19:19.264Z,5060
2017-06-22T12:19:44.738Z,5008
2017-06-22T12:20:10.225Z,5000
2017-06-22T12:20:35.695Z,4972
2017-06-22T12:21:01.190Z,4928
2017-06-22T12:21:26.656Z,4956
2017-06-22T12:21:52.145Z,4760
2017-06-22T12:22:17.626Z,4656
2017-06-22T12:22:43.095Z,4564
2017-06-22T12:23:08.637Z,4444
2017-06-22T12:23:34.192Z,4388
2017-06-22T12:23:59.687Z,4360
2017-06-22T12:24:25.159Z,4324
2017-06-22T12:24:50.608Z,4472
2017-06-22T12:25:16.094Z,4576
2017-06-22T12:25:41.664Z,4512
2017-06-22T12:26:07.163Z,4576
2017-06-22T12:26:32.653Z,4656
2017-06-22T12:26:58.160Z,4688
2017-06-22T12:27:23.607Z,4612
2017-06-22T12:27:49.069Z,4588
2017-06-22T12:28:14.554Z,4580
2017-06-22T12:28:40.053Z,4780
2017-06-22T12:29:05.529Z,4972
2017-06-22T12:29:31.038Z,4900
2017-06-22T12:29:56.523Z,4776
2017-06-22T12:30:21.997Z,4732
2017-06-22T12:30:47.493Z,4784
2017-06-22T12:31:12.970Z,4812
2017-06-22T12:31:38.434Z,4828
2017-06-22T12:32:03.897Z,4824
2017-06-22T12:32:29.363Z,4792
2017-06-22T12:32:54.859Z,4684
2017-06-22T12:33:20.337Z,4680
2017-06-22T12:33:45.793Z,4764
2017-06-22T12:34:11.264Z,4840
2017-06-22T12:34:36.741Z,4880
2017-06-22T12:35:02.207Z,4884
2017-06-22T12:35:27.669Z,4892
2017-06-22T12:35:53.154Z,4952
2017-06-22T12:36:18.633Z,4984
2017-06-22T12:36:44.097Z,5008
2017-06-22T12:37:09.576Z,5000
2017-06-22T12:37:35.080Z,4976
2017-06-22T12:38:00.550Z,4916
2017-06-22T12:38:26.035Z,4816
2017-06-22T12:38:51.512Z,4756
2017-06-22T12:39:17.007Z,4812
2017-06-22T12:39:42.478Z,4836
2017-06-22T12:40:07.928Z,4904
2017-06-22T12:40:33.412Z,4964
2017-06-22T12:40:58.908Z,5088
2017-06-22T12:41:24.410Z,5168
2017-06-22T12:41:49.878Z,5236
2017-06-22T12:42:15.357Z,5276
2017-06-22T12:42:40.860Z,5388
2017-06-22T12:43:06.351Z,5600
2017-06-22T12:43:31.866Z,5776
2017-06-22T12:43:57.325Z,5864
2017-06-22T12:44:22.796Z,5904
2017-06-22T12:44:48.275Z,5900
2017-06-22T12:45:13.759Z,5892
2017-06-22T12:45:39.234Z,5868
2017-06-22T12:46:04.712Z,5856
2017-06-22T12:46:30.177Z,5824
2017-06-22T12:46:55.660Z,5768
2017-06-22T12:47:21.177Z,5740
2017-06-22T12:47:46.663Z,5700
2017-06-22T12:48:12.146Z,5628
2017-06-22T12:48:37.602Z,5532
2017-06-22T12:49:03.072Z,5420
2017-06-22T12:49:28.608Z,5396
2017-06-22T12:49:54.071Z,5508
2017-06-22T12:50:19.567Z,5628
2017-06-22T12:50:45.063Z,5692
2017-06-22T12:51:10.561Z,5744
2017-06-22T12:51:36.011Z,5732
2017-06-22T12:52:01.473Z,5684
2017-06-22T12:52:26.934Z,5668
2017-06-22T12:52:52.393Z,5596
2017-06-22T12:53:17.868Z,5484
2017-06-22T12:53:43.348Z,5412
2017-06-22T12:54:08.894Z,5344
2017-06-22T12:54:34.373Z,5252
2017-06-22T12:54:59.869Z,5188
2017-06-22T12:55:25.340Z,5128
2017-06-22T12:55:50.780Z,5012
2017-06-22T12:56:16.228Z,4884
2017-06-22T12:56:41.710Z,4812
2017-06-22T12:57:07.212Z,4824
2017-06-22T12:57:32.690Z,4864
2017-06-22T12:57:58.148Z,4992
2017-06-22T12:58:23.630Z,5072
2017-06-22T12:58:49.122Z,5104
2017-06-22T12:59:14.624Z,5092
2017-06-22T12:59:40.053Z,5044
2017-06-22T13:00:05.550Z,4880
2017-06-22T13:00:31.039Z,4756
2017-06-22T13:00:56.549Z,4740
2017-06-22T13:01:22.016Z,4824
2017-06-22T13:01:47.503Z,4900
2017-06-22T13:02:12.977Z,4828
2017-06-22T13:02:38.433Z,4692
2017-06-22T13:03:03.903Z,4632
2017-06-22T13:03:29.386Z,4600
2017-06-22T13:03:54.858Z,4572
2017-06-22T13:04:20.328Z,4528
2017-06-22T13:04:45.791Z,4536
2017-06-22T13:05:11.292Z,4444
2017-06-22T13:05:36.783Z,4304
2017-06-22T13:06:02.283Z,4168
2017-06-22T13:07:10.502Z,3908
2017-06-22T13:07:35.961Z,3932
2017-06-22T13:08:01.464Z,4056
2017-06-22T13:08:26.937Z,4184
2017-06-22T13:08:52.409Z,4276
2017-06-22T13:09:17.873Z,4320
2017-06-22T13:09:43.320Z,4352
2017-06-22T13:10:08.806Z,4396
2017-06-22T13:10:34.290Z,4412
2017-06-22T13:10:59.749Z,4496
2017-06-22T13:11:25.241Z,4492
2017-06-22T13:11:50.721Z,4472
2017-06-22T13:12:16.219Z,4552
2017-06-22T13:12:41.687Z,4620
2017-06-22T13:13:07.205Z,4748
2017-06-22T13:13:32.668Z,4816
2017-06-22T13:13:58.169Z,4848
2017-06-22T13:14:23.652Z,4888
2017-06-22T13:14:49.132Z,4892
2017-06-22T13:15:14.622Z,4904
2017-06-22T13:15:40.128Z,4924
2017-06-22T13:16:05.589Z,4964
2017-06-22T13:16:31.102Z,4940
2017-06-22T13:16:56.563Z,4920
2017-06-22T13:17:21.999Z,4900
2017-06-22T13:17:47.513Z,4876
2017-06-22T13:18:12.958Z,4836
2017-06-22T13:18:38.410Z,4764
2017-06-22T13:19:03.882Z,4724
2017-06-22T13:19:29.346Z,4752
2017-06-22T13:19:54.849Z,4728
2017-06-22T13:20:20.295Z,4700
2017-06-22T13:20:45.761Z,4728
2017-06-22T13:21:11.227Z,4708
2017-06-22T13:21:36.731Z,4772
2017-06-22T13:22:02.229Z,4796
2017-06-22T13:22:27.713Z,4772
2017-06-22T13:22:53.179Z,4688
2017-06-22T13:23:18.639Z,4616
2017-06-22T13:23:44.098Z,4540
2017-06-22T13:24:09.573Z,4456
2017-06-22T13:24:35.040Z,4408
2017-06-22T13:25:00.524Z,4376
2017-06-22T13:25:26.002Z,4344
2017-06-22T13:25:51.461Z,4316
2017-06-22T13:26:16.923Z,4300
2017-06-22T13:26:42.390Z,4296
2017-06-22T13:27:07.882Z,4296
2017-06-22T13:27:33.360Z,4244
2017-06-22T13:27:58.826Z,4188
2017-06-22T13:28:24.327Z,4148
2017-06-22T13:28:49.799Z,4104
2017-06-22T13:29:15.289Z,4076
2017-06-22T13:29:40.816Z,4032
2017-06-22T13:30:06.259Z,4036
2017-06-22T13:30:31.734Z,4072
2017-06-22T13:30:57.217Z,4104
2017-06-22T13:31:22.685Z,4136
2017-06-22T13:31:48.147Z,4112
2017-06-22T13:32:13.618Z,4060
2017-06-22T13:32:39.073Z,3980
2017-06-22T13:33:04.535Z,3928
2017-06-22T13:33:30.031Z,3892
2017-06-22T13:33:55.489Z,3872
2017-06-22T13:34:20.961Z,3836
2017-06-22T13:34:46.417Z,3828
2017-06-22T13:35:11.881Z,3828
2017-06-22T13:35:37.340Z,3820
2017-06-22T13:36:02.858Z,3808
2017-06-22T13:36:28.350Z,3800
2017-06-22T13:36:53.824Z,3760
2017-06-22T13:37:19.302Z,3728
2017-06-22T13:38:37.709Z,3696
2017-06-22T13:39:03.204Z,3712
2017-06-22T13:39:28.688Z,3732
2017-06-22T13:39:54.177Z,3732
2017-06-22T13:40:19.660Z,3716
2017-06-22T13:40:45.139Z,3676
2017-06-22T13:41:10.625Z,3628
2017-06-22T13:41:36.119Z,3592
2017-06-22T13:42:01.591Z,3556
2017-06-22T13:42:27.042Z,3492
2017-06-22T13:42:52.528Z,3460
2017-06-22T13:43:18.007Z,3472
2017-06-22T13:43:43.480Z,3508
2017-06-22T13:44:08.949Z,3528
2017-06-22T13:44:34.448Z,3536
2017-06-22T13:44:59.917Z,3552
2017-06-22T13:45:25.379Z,3588
2017-06-22T13:45:50.876Z,3632
2017-06-22T13:46:16.338Z,3648
2017-06-22T13:46:41.790Z,3624
2017-06-22T13:47:07.269Z,3584
2017-06-22T13:47:32.747Z,3556
2017-06-22T13:47:58.189Z,3544
2017-06-22T13:48:23.675Z,3556
2017-06-22T13:48:49.124Z,3576
2017-06-22T13:49:14.608Z,3604
2017-06-22T13:49:40.069Z,3640
2017-06-22T13:50:05.547Z,3688
2017-06-22T13:50:31.009Z,3732
2017-06-22T13:50:56.465Z,3764
2017-06-22T13:51:21.999Z,3792
2017-06-22T13:51:47.498Z,3832
2017-06-22T13:52:12.970Z,3844
2017-06-22T13:52:38.418Z,3804
2017-06-22T13:53:03.919Z,3732
2017-06-22T13:53:29.397Z,3648
2017-06-22T13:53:54.884Z,3652
2017-06-22T13:54:20.372Z,3688
2017-06-22T13:54:45.853Z,3732
2017-06-22T13:55:11.335Z,3824
2017-06-22T13:55:36.825Z,3944
2017-06-22T13:56:02.319Z,4044
2017-06-22T13:56:27.781Z,4132
2017-06-22T13:56:53.273Z,4192
2017-06-22T13:57:18.744Z,4220
2017-06-22T13:57:44.228Z,4208
2017-06-22T13:58:09.731Z,4220
2017-06-22T13:58:35.226Z,4260
2017-06-22T13:59:00.712Z,4292
2017-06-22T13:59:26.176Z,4328
2017-06-22T13:59:51.636Z,4360
2017-06-22T14:00:17.120Z,4420
2017-06-22T14:00:42.588Z,4508
2017-06-22T14:01:08.055Z,4560
2017-06-22T14:01:33.559Z,4592
2017-06-22T14:01:59.013Z,4620
2017-06-22T14:02:24.511Z,4588
2017-06-22T14:02:49.994Z,4588
2017-06-22T14:03:15.469Z,4580
2017-06-22T14:03:40.929Z,4548
2017-06-22T14:04:06.425Z,4496
2017-06-22T14:04:31.875Z,4420
2017-06-22T14:04:57.363Z,4336
2017-06-22T14:05:22.854Z,4316
2017-06-22T14:05:48.348Z,4308
2017-06-22T14:06:13.841Z,4308
2017-06-22T14:06:39.322Z,4380
2017-06-22T14:07:04.777Z,4388
2017-06-22T14:07:30.250Z,4412
2017-06-22T14:07:55.763Z,4452
2017-06-22T14:08:21.196Z,4500
2017-06-22T14:08:46.688Z,4540
2017-06-22T14:09:12.170Z,4548
2017-06-22T14:09:37.651Z,4540
2017-06-22T14:10:03.112Z,4528
2017-06-22T14:10:28.591Z,4540
2017-06-22T14:10:54.049Z,4528
2017-06-22T14:11:19.526Z,4552
2017-06-22T14:11:44.997Z,4636
2017-06-22T14:12:10.471Z,4692
2017-06-22T14:12:35.912Z,4708
2017-06-22T14:13:01.380Z,4760
2017-06-22T14:13:26.867Z,4796
2017-06-22T14:13:52.343Z,4840
2017-06-22T14:14:17.837Z,4868
2017-06-22T14:14:43.286Z,4892
2017-06-22T14:15:08.773Z,4928
2017-06-22T14:15:34.276Z,4968
2017-06-22T14:15:59.724Z,5044
2017-06-22T14:16:25.205Z,5156
2017-06-22T14:16:50.652Z,5292
2017-06-22T14:17:16.116Z,5416
2017-06-22T14:17:41.606Z,5560
2017-06-22T14:18:07.100Z,5696
2017-06-22T14:18:32.575Z,5804
2017-06-22T14:18:58.087Z,5924
2017-06-22T14:19:23.542Z,6028
2017-06-22T14:19:49.049Z,6128
2017-06-22T14:20:14.537Z,6148
2017-06-22T14:20:40.041Z,6220
2017-06-22T14:21:05.513Z,6260
2017-06-22T14:21:30.999Z,6236
2017-06-22T14:21:56.480Z,6196
2017-06-22T14:22:21.995Z,6112
2017-06-22T14:22:47.480Z,6060
2017-06-22T14:23:12.976Z,6040
2017-06-22T14:23:38.467Z,6000
2017-06-22T14:24:03.975Z,5904
2017-06-22T14:24:29.424Z,5744
2017-06-22T14:24:54.898Z,5540
2017-06-22T14:25:20.369Z,5368
2017-06-22T14:25:45.821Z,5160
2017-06-22T14:26:11.305Z,4988
2017-06-22T14:26:36.792Z,4904
2017-06-22T14:27:02.283Z,4856
2017-06-22T14:27:27.755Z,4840
2017-06-22T14:27:53.225Z,4812
2017-06-22T14:28:18.680Z,4872
2017-06-22T14:28:44.175Z,4980
2017-06-22T14:29:09.634Z,5120
2017-06-22T14:29:35.125Z,5204
2017-06-22T14:30:00.617Z,5260
2017-06-22T14:30:26.067Z,5320
2017-06-22T14:30:51.528Z,5440
2017-06-22T14:31:17.021Z,5596
2017-06-22T14:31:42.490Z,5812
2017-06-22T14:32:07.964Z,5972
2017-06-22T14:32:33.429Z,6036
2017-06-22T14:32:58.881Z,5952
2017-06-22T14:33:24.375Z,5752
2017-06-22T14:33:49.895Z,5580
2017-06-22T14:34:15.394Z,5412
2017-06-22T14:34:40.885Z,5272
2017-06-22T14:35:06.370Z,5184
2017-06-22T14:35:31.837Z,5156
2017-06-22T14:35:57.314Z,5136
2017-06-22T14:36:22.809Z,5096
2017-06-22T14:36:48.266Z,5036
2017-06-22T14:37:13.736Z,5020
2017-06-22T14:37:39.231Z,5064
2017-06-22T14:38:04.706Z,5140
2017-06-22T14:38:30.179Z,5176
2017-06-22T14:38:55.638Z,5136
2017-06-22T14:39:21.115Z,5044
2017-06-22T14:39:46.601Z,4980
2017-06-22T14:40:12.072Z,4936
2017-06-22T14:40:37.560Z,4912
2017-06-22T14:41:03.016Z,4868
2017-06-22T14:41:28.504Z,4860
2017-06-22T14:41:53.978Z,4832
2017-06-22T14:42:19.463Z,4860
2017-06-22T14:42:44.933Z,4916
2017-06-22T14:43:10.441Z,4972
2017-06-22T14:43:35.909Z,4996
2017-06-22T14:44:01.408Z,5056
2017-06-22T14:44:26.881Z,5136
2017-06-22T14:44:52.372Z,5252
2017-06-22T14:45:17.855Z,5424
2017-06-22T14:45:43.330Z,5636
2017-06-22T14:46:08.797Z,5884
2017-06-22T14:46:34.253Z,6048
2017-06-22T14:46:59.777Z,6144
2017-06-22T14:47:25.281Z,6180
2017-06-22T14:47:50.784Z,6196
2017-06-22T14:48:16.225Z,6248
2017-06-22T14:49:34.610Z,5688
2017-06-22T14:50:00.078Z,5304
2017-06-22T14:50:25.547Z,4996
2017-06-22T14:50:51.045Z,4824
2017-06-22T14:51:16.505Z,4696
2017-06-22T14:51:41.989Z,4608
2017-06-22T14:52:07.487Z,4524
2017-06-22T14:52:32.949Z,4444
2017-06-22T14:52:58.393Z,4388
2017-06-22T14:53:23.867Z,4352
2017-06-22T14:53:49.361Z,4404
2017-06-22T14:54:14.836Z,4616
2017-06-22T14:54:40.322Z,4888
2017-06-22T14:55:05.794Z,5120
2017-06-22T14:55:31.266Z,5260
2017-06-22T14:55:56.755Z,5404
2017-06-22T14:56:22.218Z,5448
2017-06-22T14:56:47.680Z,5444
2017-06-22T14:57:13.160Z,5408
2017-06-22T14:57:38.644Z,5328
2017-06-22T14:58:04.135Z,5236
2017-06-22T14:58:29.605Z,5104
2017-06-22T14:58:55.083Z,4912
2017-06-22T14:59:20.533Z,4724
2017-06-22T14:59:46.031Z,4580
2017-06-22T15:00:11.518Z,4456
2017-06-22T15:00:36.971Z,4448
2017-06-22T15:01:02.450Z,4468
2017-06-22T15:01:27.919Z,4492
2017-06-22T15:01:53.428Z,4568
2017-06-22T15:02:18.871Z,4688
2017-06-22T15:02:44.331Z,4808
2017-06-22T15:03:09.830Z,4896
2017-06-22T15:03:35.291Z,4968
2017-06-22T15:04:00.780Z,5000
2017-06-22T15:04:26.256Z,4996
2017-06-22T15:04:51.736Z,4980
2017-06-22T15:05:17.262Z,4964
2017-06-22T15:05:42.699Z,4872
2017-06-22T15:06:08.166Z,4808
2017-06-22T15:06:33.652Z,4772
2017-06-22T15:06:59.158Z,4704
2017-06-22T15:07:24.612Z,4672
2017-06-22T15:07:50.120Z,4588
2017-06-22T15:08:15.600Z,4472
2017-06-22T15:08:41.090Z,4380
2017-06-22T15:09:06.551Z,4280
2017-06-22T15:09:32.091Z,4224
2017-06-22T15:09:57.561Z,4208
2017-06-22T15:10:23.058Z,4256
2017-06-22T15:10:48.517Z,4384
2017-06-22T15:11:14.006Z,4460
2017-06-22T15:11:39.490Z,4440
2017-06-22T15:12:04.995Z,4356
2017-06-22T15:12:30.465Z,4248
2017-06-22T15:12:55.916Z,4140
2017-06-22T15:13:21.359Z,4012
2017-06-22T15:13:46.816Z,3944
2017-06-22T15:14:12.311Z,3900
2017-06-22T15:14:37.792Z,3868
2017-06-22T15:15:03.247Z,3864
2017-06-22T15:15:28.723Z,3884
2017-06-22T15:15:54.193Z,3896
2017-06-22T15:16:19.702Z,3876
2017-06-22T15:16:45.187Z,3840
2017-06-22T15:17:10.644Z,3776
2017-06-22T15:17:36.125Z,3692
2017-06-22T15:18:01.579Z,3588
2017-06-22T15:18:27.036Z,3508
2017-06-22T15:18:52.537Z,3440
2017-06-22T15:19:18.066Z,3396
2017-06-22T15:19:43.564Z,3384
2017-06-22T15:20:09.057Z,3372
2017-06-22T15:20:34.529Z,3372
2017-06-22T15:20:59.989Z,3416
2017-06-22T15:21:25.431Z,3480
2017-06-22T15:21:50.883Z,3596
2017-06-22T15:22:16.337Z,3760
2017-06-22T15:22:41.772Z,4000
2017-06-22T15:23:07.247Z,4240
2017-06-22T15:23:32.719Z,4496
2017-06-22T15:23:58.169Z,4752
2017-06-22T15:24:23.661Z,5044
2017-06-22T15:24:49.178Z,5300
2017-06-22T15:25:14.579Z,5580
2017-06-22T15:25:40.060Z,5812
2017-06-22T15:26:05.530Z,6012
2017-06-22T15:26:31.042Z,6124
2017-06-22T15:26:56.517Z,6180
2017-06-22T15:27:22.019Z,6160
2017-06-22T15:27:47.499Z,6000
2017-06-22T15:28:12.983Z,5908
2017-06-22T15:28:38.455Z,5728
2017-06-22T15:29:03.994Z,5492
2017-06-22T15:29:29.717Z,5236
2017-06-22T15:29:55.175Z,4944
2017-06-22T15:30:20.651Z,4672
2017-06-22T15:30:46.176Z,4388
2017-06-22T15:31:11.745Z,4072
2017-06-22T15:31:37.269Z,3788
2017-06-22T15:32:02.755Z,3556
2017-06-22T15:32:28.255Z,3352
2017-06-22T15:32:53.710Z,3236
2017-06-22T15:33:19.180Z,3196
2017-06-22T15:33:44.659Z,3204
2017-06-22T15:34:10.118Z,3248
2017-06-22T15:34:35.575Z,3284
2017-06-22T15:35:01.113Z,3296
2017-06-22T15:35:26.537Z,3312
2017-06-22T15:35:52.011Z,3336
2017-06-22T15:36:17.516Z,3384
2017-06-22T15:36:43.009Z,3460
2017-06-22T15:37:08.468Z,3548
2017-06-22T15:37:34.013Z,3672
2017-06-22T15:37:59.458Z,3808
2017-06-22T15:38:24.977Z,3944
2017-06-22T15:38:50.435Z,4044
2017-06-22T15:39:15.922Z,4080
2017-06-22T15:39:41.420Z,4072
2017-06-22T15:40:06.925Z,4004
2017-06-22T15:40:32.411Z,3932
2017-06-22T15:40:57.935Z,3828
2017-06-22T15:41:23.412Z,3700
2017-06-22T15:41:48.887Z,3556
2017-06-22T15:42:14.447Z,3436
2017-06-22T15:42:39.909Z,3352
2017-06-22T15:43:05.457Z,3284
2017-06-22T15:43:30.937Z,3244
2017-06-22T15:43:56.431Z,3220
2017-06-22T15:44:21.893Z,3188
2017-06-22T15:44:47.375Z,3180
2017-06-22T15:45:12.861Z,3180
2017-06-22T15:45:38.349Z,3164
2017-06-22T15:46:03.901Z,3176
2017-06-22T15:46:29.342Z,3224
2017-06-22T15:46:54.882Z,3268
2017-06-22T15:47:20.355Z,3328
2017-06-22T15:47:45.818Z,3408
2017-06-22T15:48:11.317Z,3532
2017-06-22T15:48:36.848Z,3692
2017-06-22T15:49:02.276Z,3780
2017-06-22T15:49:27.780Z,3856
2017-06-22T15:49:53.256Z,3920
2017-06-22T15:50:18.718Z,3980
2017-06-22T15:50:44.162Z,4108
2017-06-22T15:51:09.650Z,4224
2017-06-22T15:51:35.124Z,4336
2017-06-22T15:52:00.575Z,4468
2017-06-22T15:52:26.057Z,4572
2017-06-22T15:52:51.540Z,4672
2017-06-22T15:53:16.998Z,4772
2017-06-22T15:53:42.478Z,4896
2017-06-22T15:54:07.993Z,4948
2017-06-22T15:54:33.472Z,4976
2017-06-22T15:54:58.945Z,4996
2017-06-22T15:55:24.403Z,5020
2017-06-22T15:55:49.917Z,5044
2017-06-22T15:56:15.404Z,5068
2017-06-22T15:56:40.894Z,5120
2017-06-22T15:57:06.417Z,5056
2017-06-22T15:57:31.858Z,5024
2017-06-22T15:57:57.365Z,4984
2017-06-22T15:58:22.869Z,5008
2017-06-22T15:58:48.329Z,5068
2017-06-22T15:59:13.814Z,5140
2017-06-22T15:59:39.283Z,5260
2017-06-22T16:00:04.764Z,5368
2017-06-22T16:00:30.329Z,5488
2017-06-22T16:00:55.735Z,5568
2017-06-22T16:01:21.266Z,5624
2017-06-22T16:01:46.799Z,5660
2017-06-22T16:02:12.300Z,5692
2017-06-22T16:02:37.776Z,5688
2017-06-22T16:03:03.272Z,5640
2017-06-22T16:03:28.750Z,5580
2017-06-22T16:03:54.301Z,5504
2017-06-22T16:04:19.866Z,5420
2017-06-22T16:04:45.396Z,5360
2017-06-22T16:05:10.858Z,5336
2017-06-22T16:05:36.334Z,5244
2017-06-22T16:06:01.862Z,5096
2017-06-22T16:06:27.341Z,4928
2017-06-22T16:06:52.824Z,4772
2017-06-22T16:07:18.326Z,4620
2017-06-22T16:07:43.782Z,4496
2017-06-22T16:08:09.273Z,4428
2017-06-22T16:08:34.711Z,4364
2017-06-22T16:09:00.259Z,4372
2017-06-22T16:09:25.644Z,4400
2017-06-22T16:09:51.138Z,4392
2017-06-22T16:10:16.612Z,4372
2017-06-22T16:10:42.112Z,4336
2017-06-22T16:11:07.593Z,4224
2017-06-22T16:11:33.071Z,4040
2017-06-22T16:11:58.563Z,3772
2017-06-22T16:12:24.048Z,3484
2017-06-22T16:12:49.497Z,3216
2017-06-22T16:13:15.006Z,3004
2017-06-22T16:13:40.547Z,2832
2017-06-22T16:14:06.031Z,2760
2017-06-22T16:14:31.511Z,2780
2017-06-22T16:14:57.016Z,2804
2017-06-22T16:15:22.527Z,2876
2017-06-22T16:15:47.999Z,2944
2017-06-22T16:16:56.231Z,2956
2017-06-22T16:17:21.720Z,2972
2017-06-22T16:17:47.198Z,2968
2017-06-22T16:18:12.673Z,3024
2017-06-22T16:18:38.134Z,3052
2017-06-22T16:19:03.680Z,3036
2017-06-22T16:19:29.082Z,3024
2017-06-22T16:19:54.557Z,3064
2017-06-22T16:20:20.023Z,3116
2017-06-22T16:20:45.528Z,3072
2017-06-22T16:21:10.975Z,3140
2017-06-22T16:21:36.468Z,3336
2017-06-22T16:22:01.947Z,3472
2017-06-22T16:22:27.403Z,3612
2017-06-22T16:22:52.913Z,3808
2017-06-22T16:23:18.372Z,4024
2017-06-22T16:23:43.877Z,4236
2017-06-22T16:24:09.408Z,4476
2017-06-22T16:24:34.871Z,4760
2017-06-22T16:25:00.380Z,5120
2017-06-22T16:25:25.854Z,5516
2017-06-22T16:25:51.321Z,5840
2017-06-22T16:26:16.801Z,6104
2017-06-22T16:26:42.283Z,6268
2017-06-22T16:27:07.740Z,6400
2017-06-22T16:27:33.229Z,6476
2017-06-22T16:27:58.706Z,6568
2017-06-22T16:28:24.187Z,6460
2017-06-22T16:28:49.647Z,6256
2017-06-22T16:29:15.138Z,5976
2017-06-22T16:29:40.627Z,5672
2017-06-22T16:30:06.067Z,5384
2017-06-22T16:30:31.750Z,5120
2017-06-22T16:30:57.192Z,4932
2017-06-22T16:31:22.671Z,4772
2017-06-22T16:31:48.164Z,4732
2017-06-22T16:32:13.696Z,4652
2017-06-22T16:32:39.203Z,4624
2017-06-22T16:33:04.715Z,4544
2017-06-22T16:33:30.213Z,4436
2017-06-22T16:33:55.694Z,4368
2017-06-22T16:34:21.196Z,4292